createdAt,value
2023-02-18T00:00:23.708Z,6.22
2023-02-18T00:03:10.924Z,9.57
2023-02-18T00:05:37.733Z,9.90
2023-02-18T00:08:04.901Z,10.85
2023-02-18T00:10:31.835Z,10.30
2023-02-18T00:12:58.948Z,11.70
2023-02-18T00:15:25.731Z,14.07
2023-02-18T00:17:52.841Z,9.70
2023-02-18T00:20:19.801Z,8.57
2023-02-18T00:22:46.967Z,10.05
2023-02-18T00:25:16.003Z,10.07
2023-02-18T00:27:43.111Z,13.47
2023-02-18T00:30:10.239Z,59.00
2023-02-18T00:32:37.426Z,50.30
2023-02-18T00:35:04.634Z,55.97
2023-02-18T00:37:33.831Z,41.25
2023-02-18T00:40:01.943Z,27.33
2023-02-18T00:42:30.662Z,22.27
2023-02-18T00:44:57.447Z,24.23
2023-02-18T00:47:24.696Z,20.33
2023-02-18T00:49:51.554Z,29.98
2023-02-18T00:52:18.734Z,39.37
2023-02-18T00:54:47.695Z,48.25
2023-02-18T00:57:15.105Z,35.22
2023-02-18T00:59:42.203Z,24.95
2023-02-18T01:02:09.403Z,15.45
2023-02-18T01:04:36.232Z,14.17
2023-02-18T01:07:03.496Z,13.25
2023-02-18T01:09:30.357Z,19.75
2023-02-18T01:11:57.678Z,15.23
2023-02-18T01:14:24.578Z,13.77
2023-02-18T01:16:51.754Z,13.93
2023-02-18T01:19:18.628Z,11.40
2023-02-18T01:21:45.776Z,8.45
2023-02-18T01:24:12.705Z,7.18
2023-02-18T01:26:39.974Z,12.35
2023-02-18T01:29:07.971Z,9.70
2023-02-18T01:31:35.202Z,8.32
2023-02-18T01:34:02.097Z,7.53
2023-02-18T01:36:29.896Z,7.75
2023-02-18T01:38:56.799Z,7.15
2023-02-18T01:41:24.026Z,7.27
2023-02-18T01:44:14.569Z,9.98
2023-02-18T01:46:41.813Z,7.57
2023-02-18T01:49:10.631Z,5.90
2023-02-18T01:51:41.314Z,5.30
2023-02-18T01:54:32.148Z,5.80
2023-02-18T01:57:05.016Z,5.40
2023-02-18T01:59:40.036Z,6.53
2023-02-18T02:02:11.092Z,4.78
2023-02-18T02:04:37.913Z,5.72
2023-02-18T02:07:05.319Z,5.87
2023-02-18T02:09:33.420Z,5.68
2023-02-18T02:12:06.700Z,4.78
2023-02-18T02:15:11.370Z,5.43
2023-02-18T02:17:58.693Z,6.40
2023-02-18T02:20:34.539Z,6.33
2023-02-18T02:23:40.794Z,5.72
2023-02-18T02:26:43.153Z,5.53
2023-02-18T02:29:41.297Z,5.63
2023-02-18T02:32:46.087Z,5.00
2023-02-18T02:35:26.940Z,5.50
2023-02-18T02:38:03.931Z,4.75
2023-02-18T02:40:40.292Z,6.50
2023-02-18T02:43:37.863Z,5.35
2023-02-18T02:46:16.792Z,6.88
2023-02-18T02:49:00.875Z,6.87
2023-02-18T02:51:40.603Z,10.10
2023-02-18T02:54:17.560Z,11.70
2023-02-18T02:56:45.477Z,13.23
2023-02-18T02:59:23.953Z,18.02
2023-02-18T03:02:11.824Z,21.40
2023-02-18T03:04:51.640Z,28.60
2023-02-18T03:07:19.294Z,27.30
2023-02-18T03:10:24.037Z,22.45
2023-02-18T03:13:04.346Z,14.25
2023-02-18T03:15:31.306Z,13.43
2023-02-18T03:18:27.955Z,10.10
2023-02-18T03:21:06.396Z,12.15
2023-02-18T03:23:39.653Z,8.52
2023-02-18T03:26:09.484Z,11.20
2023-02-18T03:28:38.717Z,10.90
2023-02-18T03:31:17.316Z,14.55
2023-02-18T03:33:59.341Z,12.85
2023-02-18T03:36:26.371Z,8.20
2023-02-18T03:39:01.297Z,12.27
2023-02-18T03:41:28.720Z,10.43
2023-02-18T03:44:01.259Z,9.38
2023-02-18T03:46:30.435Z,9.10
2023-02-18T03:48:59.255Z,11.35
2023-02-18T03:51:26.128Z,10.15
2023-02-18T03:53:53.402Z,9.83
2023-02-18T03:56:21.525Z,10.02
2023-02-18T03:58:49.202Z,8.27
2023-02-18T04:01:16.496Z,6.50
2023-02-18T04:03:43.699Z,12.13
2023-02-18T04:06:10.844Z,9.70
2023-02-18T04:08:38.077Z,10.35
2023-02-18T04:11:05.744Z,14.02
2023-02-18T04:13:33.309Z,16.85
2023-02-18T04:16:00.232Z,15.88
2023-02-18T04:18:27.468Z,16.07
2023-02-18T04:20:54.290Z,12.20
2023-02-18T04:23:21.503Z,12.07
2023-02-18T04:25:48.417Z,9.90
2023-02-18T04:28:17.055Z,11.25
2023-02-18T04:30:45.064Z,15.10
2023-02-18T04:33:12.883Z,38.67
2023-02-18T04:35:42.058Z,59.83
2023-02-18T04:38:11.548Z,72.18
2023-02-18T04:40:38.452Z,115.00
2023-02-18T04:43:05.699Z,154.27
2023-02-18T04:45:32.717Z,175.00
2023-02-18T04:47:59.958Z,78.90
2023-02-18T04:50:27.295Z,58.67
2023-02-18T04:52:54.472Z,37.10
2023-02-18T04:55:21.353Z,24.73
2023-02-18T04:57:48.584Z,48.95
2023-02-18T05:00:18.145Z,137.63
2023-02-18T05:02:46.059Z,57.95
2023-02-18T05:05:14.655Z,31.00
2023-02-18T05:07:42.745Z,46.07
2023-02-18T05:10:11.829Z,31.10
2023-02-18T05:12:39.042Z,83.00
2023-02-18T05:15:06.524Z,41.13
2023-02-18T05:17:33.890Z,47.25
2023-02-18T05:20:01.755Z,13.67
2023-02-18T05:22:28.931Z,5.55
2023-02-18T05:24:55.932Z,8.43
2023-02-18T05:27:23.107Z,8.65
2023-02-18T05:32:33.874Z,4.13
2023-02-18T05:35:00.734Z,5.53
2023-02-18T05:37:27.972Z,5.32
2023-02-18T05:39:54.810Z,9.80
2023-02-18T05:42:23.396Z,10.13
2023-02-18T05:44:50.237Z,10.63
2023-02-18T05:47:17.817Z,11.35
2023-02-18T05:49:44.910Z,27.77
2023-02-18T05:52:12.782Z,25.35
2023-02-18T05:54:39.828Z,31.65
2023-02-18T05:57:07.022Z,32.40
2023-02-18T05:59:34.265Z,15.90
2023-02-18T06:02:01.699Z,24.60
2023-02-18T06:04:28.696Z,27.20
2023-02-18T06:06:56.130Z,32.25
2023-02-18T06:09:23.038Z,26.40
2023-02-18T06:11:50.853Z,14.00
2023-02-18T06:14:20.479Z,20.10
2023-02-18T06:16:47.776Z,27.75
2023-02-18T06:19:14.735Z,17.52
2023-02-18T06:21:42.145Z,18.80
2023-02-18T06:24:09.017Z,12.48
2023-02-18T06:26:36.274Z,15.50
2023-02-18T06:29:03.678Z,10.07
2023-02-18T06:31:31.050Z,16.55
2023-02-18T06:33:57.916Z,26.43
2023-02-18T06:36:25.111Z,17.13
2023-02-18T06:38:52.030Z,17.17
2023-02-18T06:41:19.185Z,43.95
2023-02-18T06:43:46.058Z,21.20
2023-02-18T06:46:13.461Z,17.53
2023-02-18T06:48:40.368Z,10.25
2023-02-18T06:51:07.633Z,8.30
2023-02-18T06:53:34.762Z,26.15
2023-02-18T06:56:02.107Z,35.38
2023-02-18T06:58:29.023Z,31.13
2023-02-18T07:00:56.298Z,11.38
2023-02-18T07:03:23.220Z,7.05
2023-02-18T07:05:50.578Z,10.77
2023-02-18T07:08:18.195Z,8.48
2023-02-18T07:10:45.457Z,5.03
2023-02-18T07:13:12.387Z,5.97
2023-02-18T07:15:39.956Z,5.88
2023-02-18T07:18:07.030Z,5.82
2023-02-18T07:20:34.292Z,5.95
2023-02-18T07:23:01.141Z,7.73
2023-02-18T07:25:28.361Z,6.40
2023-02-18T07:27:55.262Z,7.32
2023-02-18T07:30:22.586Z,7.35
2023-02-18T07:32:49.457Z,7.68
2023-02-18T07:35:17.789Z,8.53
2023-02-18T07:37:46.569Z,7.82
2023-02-18T07:40:17.978Z,8.30
2023-02-18T07:42:44.843Z,14.45
2023-02-18T07:45:13.122Z,28.67
2023-02-18T07:47:41.896Z,29.93
2023-02-18T07:50:10.160Z,14.98
2023-02-18T07:52:37.193Z,13.35
2023-02-18T07:55:04.802Z,14.48
2023-02-18T07:57:31.811Z,29.35
2023-02-18T07:59:59.054Z,19.63
2023-02-18T08:02:26.215Z,15.05
2023-02-18T08:04:53.424Z,21.73
2023-02-18T08:07:22.118Z,22.73
2023-02-18T08:09:50.897Z,25.33
2023-02-18T08:12:18.328Z,8.70
2023-02-18T08:14:45.669Z,12.57
2023-02-18T08:17:12.710Z,24.05
2023-02-18T08:19:40.061Z,12.32
2023-02-18T08:22:07.180Z,9.50
2023-02-18T08:24:34.353Z,18.40
2023-02-18T08:27:01.816Z,14.73
2023-02-18T08:29:29.744Z,16.05
2023-02-18T08:31:58.449Z,9.57
2023-02-18T08:34:26.324Z,9.48
2023-02-18T08:36:53.235Z,12.52
2023-02-18T08:39:20.402Z,10.37
2023-02-18T08:41:47.321Z,17.20
2023-02-18T08:44:14.597Z,9.05
2023-02-18T08:46:41.791Z,15.18
2023-02-18T08:49:09.084Z,20.02
2023-02-18T08:51:36.062Z,15.40
2023-02-18T08:54:03.561Z,20.67
2023-02-18T08:56:31.776Z,5.70
2023-02-18T08:58:59.514Z,5.63
2023-02-18T09:01:26.561Z,8.40
2023-02-18T09:03:53.882Z,5.40
2023-02-18T09:06:20.856Z,5.38
2023-02-18T09:08:48.182Z,9.13
2023-02-18T09:11:15.437Z,16.63
2023-02-18T09:13:42.837Z,10.68
2023-02-18T09:16:13.993Z,7.90
2023-02-18T09:18:42.223Z,12.52
2023-02-18T09:21:11.654Z,7.22
2023-02-18T09:23:40.178Z,8.18
2023-02-18T09:26:09.901Z,7.38
2023-02-18T09:28:37.826Z,12.97
2023-02-18T09:31:19.168Z,20.02
2023-02-18T09:33:52.363Z,9.77
2023-02-18T09:36:20.627Z,8.73
2023-02-18T09:38:48.249Z,6.45
2023-02-18T09:41:45.561Z,8.83
2023-02-18T09:44:23.474Z,9.13
2023-02-18T09:47:20.390Z,6.68
2023-02-18T09:49:55.171Z,4.95
2023-02-18T09:52:30.001Z,6.07
2023-02-18T09:54:57.551Z,5.53
2023-02-18T09:57:29.790Z,5.93
2023-02-18T10:00:08.724Z,6.57
2023-02-18T10:02:41.922Z,5.22
2023-02-18T10:05:15.303Z,9.43
2023-02-18T10:07:44.144Z,5.53
2023-02-18T10:10:32.488Z,5.50
2023-02-18T10:13:00.817Z,6.25
2023-02-18T10:15:30.678Z,7.65
2023-02-18T10:17:58.777Z,4.00
2023-02-18T10:20:29.743Z,5.43
2023-02-18T10:23:00.534Z,4.82
2023-02-18T10:25:29.683Z,5.70
2023-02-18T10:27:59.804Z,5.40
2023-02-18T10:30:42.112Z,4.55
2023-02-18T10:33:15.113Z,4.40
2023-02-18T10:35:54.197Z,7.13
2023-02-18T10:38:33.524Z,10.80
2023-02-18T10:41:19.541Z,7.85
2023-02-18T10:44:18.839Z,11.55
2023-02-18T10:47:00.072Z,6.80
2023-02-18T10:49:32.861Z,8.80
2023-02-18T10:52:02.589Z,8.80
2023-02-18T10:54:52.496Z,7.70
2023-02-18T10:57:23.194Z,11.75
2023-02-18T11:00:14.997Z,6.30
2023-02-18T11:02:43.548Z,4.43
2023-02-18T11:05:27.749Z,7.43
2023-02-18T11:07:58.014Z,7.93
2023-02-18T11:10:31.652Z,6.68
2023-02-18T11:13:03.478Z,8.50
2023-02-18T11:15:30.814Z,7.90
2023-02-18T11:18:13.239Z,8.02
2023-02-18T11:20:40.840Z,5.93
2023-02-18T11:23:08.003Z,4.57
2023-02-18T11:25:36.935Z,9.93
2023-02-18T11:28:13.399Z,6.05
2023-02-18T11:30:44.037Z,7.50
2023-02-18T11:33:33.197Z,5.93
2023-02-18T11:36:07.146Z,6.30
2023-02-18T11:38:46.330Z,7.17
2023-02-18T11:41:16.851Z,5.63
2023-02-18T11:43:48.277Z,5.40
2023-02-18T11:46:22.128Z,7.93
2023-02-18T11:48:50.711Z,8.80
2023-02-18T11:51:27.947Z,6.07
2023-02-18T11:54:03.434Z,5.40
2023-02-18T11:56:34.391Z,3.78
2023-02-18T11:59:03.931Z,8.95
2023-02-18T12:01:50.688Z,18.45
2023-02-18T12:04:21.544Z,9.90
2023-02-18T12:06:48.476Z,8.98
2023-02-18T12:09:29.386Z,4.22
2023-02-18T12:12:03.320Z,4.43
2023-02-18T12:14:30.584Z,8.55
2023-02-18T12:17:25.169Z,9.30
2023-02-18T12:20:01.491Z,8.90
2023-02-18T12:22:37.702Z,8.30
2023-02-18T12:25:22.719Z,3.40
2023-02-18T12:27:59.943Z,4.68
2023-02-18T12:30:27.141Z,5.90
2023-02-18T12:33:16.246Z,3.05
2023-02-18T12:36:08.634Z,2.75
2023-02-18T12:38:57.158Z,4.43
2023-02-18T12:41:54.064Z,3.75
2023-02-18T12:44:45.907Z,4.77
2023-02-18T12:47:31.760Z,11.98
2023-02-18T12:50:15.398Z,3.60
2023-02-18T12:52:51.458Z,2.92
2023-02-18T12:55:36.661Z,2.80
2023-02-18T12:58:29.327Z,3.77
2023-02-18T13:01:22.342Z,3.90
2023-02-18T13:04:27.135Z,4.10
2023-02-18T13:07:01.762Z,2.60
2023-02-18T13:10:03.146Z,7.03
2023-02-18T13:12:46.970Z,3.67
2023-02-18T13:15:20.834Z,2.80
2023-02-18T13:17:50.098Z,3.05
2023-02-18T13:20:46.308Z,4.40
2023-02-18T13:23:18.929Z,3.10
2023-02-18T13:25:47.394Z,3.47
2023-02-18T13:28:21.448Z,3.00
2023-02-18T13:30:52.176Z,3.80
2023-02-18T13:33:51.189Z,3.00
2023-02-18T13:36:30.620Z,3.35
2023-02-18T13:39:00.448Z,3.00
2023-02-18T13:41:27.960Z,2.92
2023-02-18T13:43:54.989Z,4.15
2023-02-18T13:46:23.434Z,3.03
2023-02-18T13:49:13.560Z,2.75
2023-02-18T13:51:46.498Z,2.97
2023-02-18T13:54:14.245Z,4.65
2023-02-18T13:56:44.696Z,3.05
2023-02-18T13:59:34.698Z,3.90
2023-02-18T14:02:19.991Z,3.30
2023-02-18T14:04:47.069Z,3.60
2023-02-18T14:07:44.684Z,4.07
2023-02-18T14:10:18.426Z,3.53
2023-02-18T14:12:58.029Z,3.22
2023-02-18T14:15:25.055Z,3.90
2023-02-18T14:18:11.156Z,3.00
2023-02-18T14:20:38.008Z,4.30
2023-02-18T14:23:20.452Z,3.83
2023-02-18T14:26:05.284Z,4.30
2023-02-18T14:28:36.331Z,3.67
2023-02-18T14:31:30.510Z,3.60
2023-02-18T14:34:01.199Z,3.20
2023-02-18T14:36:46.575Z,4.35
2023-02-18T14:39:46.661Z,5.28
2023-02-18T14:42:34.903Z,3.47
2023-02-18T14:45:22.066Z,3.90
2023-02-18T14:47:51.990Z,3.30
2023-02-18T14:50:20.755Z,4.25
2023-02-18T14:52:55.300Z,3.33
2023-02-18T14:55:29.775Z,3.08
2023-02-18T14:58:06.949Z,3.37
2023-02-18T15:00:39.697Z,3.25
2023-02-18T15:03:19.398Z,3.78
2023-02-18T15:05:47.588Z,6.13
2023-02-18T15:08:18.645Z,3.75
2023-02-18T15:10:53.730Z,3.73
2023-02-18T15:13:33.970Z,3.17
2023-02-18T15:16:16.161Z,3.20
2023-02-18T15:18:56.885Z,4.88
2023-02-18T15:21:32.972Z,5.22
2023-02-18T15:24:07.264Z,8.00
2023-02-18T15:26:41.507Z,3.55
2023-02-18T15:29:15.825Z,4.13
2023-02-18T15:31:43.106Z,3.95
2023-02-18T15:34:32.913Z,4.43
2023-02-18T15:37:01.329Z,3.60
2023-02-18T15:39:28.723Z,4.30
2023-02-18T15:42:08.459Z,3.92
2023-02-18T15:44:36.852Z,3.45
2023-02-18T15:47:07.994Z,4.03
2023-02-18T15:49:37.552Z,3.13
2023-02-18T15:52:08.870Z,3.72
2023-02-18T15:54:39.556Z,4.57
2023-02-18T15:57:07.325Z,4.65
2023-02-18T15:59:36.307Z,3.80
2023-02-18T16:02:16.549Z,3.83
2023-02-18T16:04:50.066Z,3.50
2023-02-18T16:07:32.347Z,3.55
2023-02-18T16:10:21.693Z,4.03
2023-02-18T16:13:00.551Z,4.25
2023-02-18T16:15:31.484Z,4.10
2023-02-18T16:18:01.591Z,4.43
2023-02-18T16:20:38.043Z,6.90
2023-02-18T16:23:13.402Z,4.85
2023-02-18T16:25:44.660Z,4.32
2023-02-18T16:28:27.965Z,3.87
2023-02-18T16:30:54.932Z,4.05
2023-02-18T16:33:22.233Z,4.28
2023-02-18T16:35:50.897Z,4.03
2023-02-18T16:38:21.739Z,4.70
2023-02-18T16:40:48.936Z,4.90
2023-02-18T16:43:18.912Z,6.53
2023-02-18T16:45:49.853Z,7.65
2023-02-18T16:48:19.879Z,7.15
2023-02-18T16:50:48.929Z,10.18
2023-02-18T16:53:16.324Z,10.73
2023-02-18T16:55:43.323Z,19.52
2023-02-18T16:58:10.485Z,10.15
2023-02-18T17:00:38.554Z,5.78
2023-02-18T17:03:06.173Z,12.07
2023-02-18T17:05:40.285Z,16.80
2023-02-18T17:08:20.575Z,7.95
2023-02-18T17:10:48.662Z,5.72
2023-02-18T17:13:28.384Z,4.82
2023-02-18T17:15:57.320Z,4.50
2023-02-18T17:18:26.250Z,4.33
2023-02-18T17:20:53.814Z,4.80
2023-02-18T17:23:23.278Z,4.70
2023-02-18T17:25:51.532Z,3.95
2023-02-18T17:28:21.799Z,4.38
2023-02-18T17:30:56.561Z,3.70
2023-02-18T17:33:25.403Z,4.47
2023-02-18T17:35:52.409Z,4.07
2023-02-18T17:38:19.876Z,3.70
2023-02-18T17:40:48.896Z,4.00
2023-02-18T17:43:18.149Z,3.90
2023-02-18T17:45:51.820Z,3.78
2023-02-18T17:48:19.184Z,5.15
2023-02-18T17:50:46.098Z,5.00
2023-02-18T17:53:14.690Z,4.20
2023-02-18T17:55:42.929Z,3.85
2023-02-18T17:58:11.125Z,4.23
2023-02-18T18:00:48.502Z,4.38
2023-02-18T18:03:16.297Z,4.82
2023-02-18T18:05:48.639Z,3.85
2023-02-18T18:08:16.254Z,3.60
2023-02-18T18:10:50.300Z,3.77
2023-02-18T18:13:38.869Z,3.67
2023-02-18T18:16:05.882Z,3.88
2023-02-18T18:18:33.109Z,5.05
2023-02-18T18:21:01.610Z,5.47
2023-02-18T18:23:34.015Z,3.90
2023-02-18T18:26:01.496Z,3.97
2023-02-18T18:28:28.724Z,3.90
2023-02-18T18:30:56.656Z,4.07
2023-02-18T18:33:34.879Z,4.57
2023-02-18T18:36:01.844Z,4.20
2023-02-18T18:38:29.925Z,3.83
2023-02-18T18:40:57.030Z,4.63
2023-02-18T18:43:32.738Z,4.57
2023-02-18T18:46:00.629Z,5.15
2023-02-18T18:48:31.128Z,4.05
2023-02-18T18:50:59.805Z,3.67
2023-02-18T18:53:33.091Z,6.53
2023-02-18T18:56:02.966Z,5.90
2023-02-18T18:58:30.778Z,4.40
2023-02-18T19:01:01.663Z,6.82
2023-02-18T19:03:29.622Z,4.47
2023-02-18T19:05:58.275Z,4.20
2023-02-18T19:08:25.709Z,4.47
2023-02-18T19:10:57.162Z,4.13
2023-02-18T19:13:32.574Z,3.83
2023-02-18T19:16:03.930Z,4.23
2023-02-18T19:18:33.732Z,4.28
2023-02-18T19:21:02.122Z,3.90
2023-02-18T19:23:29.434Z,3.83
2023-02-18T19:25:57.071Z,3.85
2023-02-18T19:28:24.683Z,3.47
2023-02-18T19:30:51.594Z,3.60
2023-02-18T19:33:19.375Z,3.95
2023-02-18T19:35:46.218Z,4.35
2023-02-18T19:38:15.990Z,5.00
2023-02-18T19:40:44.194Z,7.10
2023-02-18T19:43:12.322Z,8.00
2023-02-18T19:45:47.013Z,8.73
2023-02-18T19:48:15.516Z,8.73
2023-02-18T19:50:43.242Z,7.10
2023-02-18T19:53:11.389Z,6.97
2023-02-18T19:55:38.715Z,6.60
2023-02-18T19:58:06.947Z,7.65
2023-02-18T20:00:34.019Z,6.88
2023-02-18T20:03:01.917Z,6.25
2023-02-18T20:05:29.161Z,5.50
2023-02-18T20:07:56.450Z,4.45
2023-02-18T20:10:25.397Z,3.90
2023-02-18T20:12:54.019Z,5.88
2023-02-18T20:15:21.736Z,4.53
2023-02-18T20:17:50.004Z,4.10
2023-02-18T20:20:17.795Z,4.40
2023-02-18T20:22:45.274Z,5.25
2023-02-18T20:25:12.147Z,5.53
2023-02-18T20:27:48.005Z,6.10
2023-02-18T20:30:21.835Z,5.63
2023-02-18T20:32:49.115Z,6.63
2023-02-18T20:35:16.182Z,8.93
2023-02-18T20:37:43.409Z,6.90
2023-02-18T20:40:10.583Z,6.22
2023-02-18T20:42:39.237Z,6.95
2023-02-18T20:45:06.499Z,7.33
2023-02-18T20:47:33.678Z,6.43
2023-02-18T20:50:00.714Z,5.93
2023-02-18T20:52:28.429Z,7.05
2023-02-18T20:54:55.401Z,5.65
2023-02-18T20:57:22.651Z,6.87
2023-02-18T20:59:49.551Z,6.82
2023-02-18T21:02:17.772Z,5.57
2023-02-18T21:04:45.278Z,6.40
2023-02-18T21:07:12.510Z,6.38
2023-02-18T21:09:39.502Z,7.43
2023-02-18T21:12:06.860Z,7.78
2023-02-18T21:14:33.753Z,9.15
2023-02-18T21:17:01.137Z,11.98
2023-02-18T21:19:28.104Z,12.73
2023-02-18T21:21:55.600Z,10.77
2023-02-18T21:24:22.796Z,10.43
2023-02-18T21:26:50.098Z,29.00
2023-02-18T21:29:17.381Z,41.47
2023-02-18T21:31:44.922Z,53.33
2023-02-18T21:34:13.887Z,58.17
2023-02-18T21:36:42.125Z,63.38
2023-02-18T21:39:10.425Z,47.00
2023-02-18T21:41:40.807Z,43.97
2023-02-18T21:44:09.212Z,41.38
2023-02-18T21:46:37.631Z,26.10
2023-02-18T21:49:12.666Z,16.50
2023-02-18T21:52:08.366Z,17.38
2023-02-18T21:54:41.762Z,10.18
2023-02-18T21:57:17.507Z,52.33
2023-02-18T21:59:45.468Z,22.27
2023-02-18T22:02:22.470Z,16.42
2023-02-18T22:04:50.284Z,17.63
2023-02-18T22:07:19.076Z,17.98
2023-02-18T22:09:48.524Z,27.45
2023-02-18T22:12:17.055Z,18.97
2023-02-18T22:14:44.300Z,16.48
2023-02-18T22:17:12.238Z,14.05
2023-02-18T22:19:39.198Z,11.02
2023-02-18T22:22:06.395Z,9.52
2023-02-18T22:24:33.532Z,9.90
2023-02-18T22:27:01.669Z,9.73
2023-02-18T22:29:30.085Z,9.18
2023-02-18T22:31:57.469Z,9.18
2023-02-18T22:34:24.407Z,9.45
2023-02-18T22:36:51.720Z,7.03
2023-02-18T22:39:18.681Z,4.67
2023-02-18T22:41:45.895Z,6.15
2023-02-18T22:44:15.499Z,7.50
2023-02-18T22:46:42.847Z,5.38
2023-02-18T22:49:09.869Z,5.15
2023-02-18T22:51:42.791Z,5.97
2023-02-18T22:54:15.838Z,6.45
2023-02-18T22:56:43.621Z,4.93
2023-02-18T22:59:12.464Z,5.68
2023-02-18T23:01:42.066Z,5.97
2023-02-18T23:04:11.769Z,4.60
2023-02-18T23:06:40.670Z,5.75
2023-02-18T23:09:08.991Z,5.97
2023-02-18T23:11:36.239Z,6.10
2023-02-18T23:14:18.572Z,6.78
2023-02-18T23:17:06.939Z,9.40
2023-02-18T23:19:35.773Z,6.47
2023-02-18T23:22:03.317Z,5.90
2023-02-18T23:24:33.245Z,6.10
2023-02-18T23:27:00.502Z,6.95
2023-02-18T23:29:27.413Z,6.27
2023-02-18T23:31:55.044Z,6.18
2023-02-18T23:34:21.999Z,6.20
2023-02-18T23:36:49.208Z,5.80
2023-02-18T23:39:21.459Z,5.88
2023-02-18T23:41:49.824Z,7.17
2023-02-18T23:44:19.511Z,6.57
2023-02-18T23:46:47.048Z,6.50
2023-02-18T23:49:24.933Z,9.32
2023-02-18T23:51:54.098Z,7.18
2023-02-18T23:54:21.666Z,4.93
2023-02-18T23:56:49.690Z,6.13
2023-02-18T23:59:17.046Z,5.22
